sensor_id;sensor_type;location;lat;lon;timestamp;temperature;humidity
65034;DHT22;51601;51.356;12.458;2023-04-01T00:00:18;9.60;99.90
65034;DHT22;51601;51.356;12.458;2023-04-01T00:04:38;9.60;99.90
65034;DHT22;51601;51.356;12.458;2023-04-01T00:08:58;9.60;99.90
65034;DHT22;51601;51.356;12.458;2023-04-01T00:13:18;9.60;99.90
65034;DHT22;51601;51.356;12.458;2023-04-01T00:17:35;9.60;99.90
65034;DHT22;51601;51.356;12.458;2023-04-01T00:21:53;9.50;99.90
65034;DHT22;51601;51.356;12.458;2023-04-01T00:26:13;9.50;99.90
65034;DHT22;51601;51.356;12.458;2023-04-01T00:30:36;9.50;99.90
65034;DHT22;51601;51.356;12.458;2023-04-01T00:34:57;9.50;99.90
65034;DHT22;51601;51.356;12.458;2023-04-01T00:39:15;9.40;99.90
65034;DHT22;51601;51.356;12.458;2023-04-01T00:43:34;9.40;99.90
65034;DHT22;51601;51.356;12.458;2023-04-01T00:47:54;9.30;99.90
65034;DHT22;51601;51.356;12.458;2023-04-01T00:52:15;9.40;99.90
65034;DHT22;51601;51.356;12.458;2023-04-01T00:56:35;9.30;99.90
65034;DHT22;51601;51.356;12.458;2023-04-01T01:00:59;9.30;99.90
65034;DHT22;51601;51.356;12.458;2023-04-01T01:05:25;9.30;99.90
65034;DHT22;51601;51.356;12.458;2023-04-01T01:09:58;9.30;99.90
65034;DHT22;51601;51.356;12.458;2023-04-01T01:14:29;9.30;99.90
65034;DHT22;51601;51.356;12.458;2023-04-01T01:18:58;9.20;99.90
65034;DHT22;51601;51.356;12.458;2023-04-01T01:23:42;9.20;99.90
65034;DHT22;51601;51.356;12.458;2023-04-01T01:28:21;9.30;99.90
65034;DHT22;51601;51.356;12.458;2023-04-01T01:33:15;9.30;99.90
65034;DHT22;51601;51.356;12.458;2023-04-01T01:37:40;9.30;99.90
65034;DHT22;51601;51.356;12.458;2023-04-01T01:42:02;9.30;99.90
65034;DHT22;51601;51.356;12.458;2023-04-01T01:46:24;9.30;99.90
65034;DHT22;51601;51.356;12.458;2023-04-01T01:50:45;9.30;99.90
65034;DHT22;51601;51.356;12.458;2023-04-01T01:55:25;9.30;99.90
65034;DHT22;51601;51.356;12.458;2023-04-01T01:59:46;9.30;99.90
65034;DHT22;51601;51.356;12.458;2023-04-01T02:04:13;9.30;99.90
65034;DHT22;51601;51.356;12.458;2023-04-01T02:08:35;9.40;99.90
65034;DHT22;51601;51.356;12.458;2023-04-01T02:13:01;9.30;99.90
65034;DHT22;51601;51.356;12.458;2023-04-01T02:17:23;9.40;99.90
65034;DHT22;51601;51.356;12.458;2023-04-01T02:21:43;9.30;99.90
65034;DHT22;51601;51.356;12.458;2023-04-01T02:26:04;9.40;99.90
65034;DHT22;51601;51.356;12.458;2023-04-01T02:30:27;9.40;99.90
65034;DHT22;51601;51.356;12.458;2023-04-01T02:34:46;9.40;99.90
65034;DHT22;51601;51.356;12.458;2023-04-01T02:39:07;9.40;99.90
65034;DHT22;51601;51.356;12.458;2023-04-01T02:43:28;9.40;99.90
65034;DHT22;51601;51.356;12.458;2023-04-01T02:47:47;9.40;99.90
65034;DHT22;51601;51.356;12.458;2023-04-01T02:52:07;9.40;99.90
65034;DHT22;51601;51.356;12.458;2023-04-01T02:56:25;9.40;99.90
65034;DHT22;51601;51.356;12.458;2023-04-01T03:00:43;9.40;99.90
65034;DHT22;51601;51.356;12.458;2023-04-01T03:05:03;9.40;99.90
65034;DHT22;51601;51.356;12.458;2023-04-01T03:09:22;9.40;99.90
65034;DHT22;51601;51.356;12.458;2023-04-01T03:13:40;9.40;99.90
65034;DHT22;51601;51.356;12.458;2023-04-01T03:17:58;9.40;99.90
65034;DHT22;51601;51.356;12.458;2023-04-01T03:22:18;9.40;99.90
65034;DHT22;51601;51.356;12.458;2023-04-01T03:26:37;9.50;99.90
65034;DHT22;51601;51.356;12.458;2023-04-01T03:30:55;9.40;99.90
65034;DHT22;51601;51.356;12.458;2023-04-01T03:35:14;9.50;99.90
65034;DHT22;51601;51.356;12.458;2023-04-01T03:39:33;9.40;99.90
65034;DHT22;51601;51.356;12.458;2023-04-01T03:43:53;9.40;99.90
65034;DHT22;51601;51.356;12.458;2023-04-01T03:48:11;9.40;99.90
65034;DHT22;51601;51.356;12.458;2023-04-01T03:52:29;9.40;99.90
65034;DHT22;51601;51.356;12.458;2023-04-01T03:56:48;9.40;99.90
65034;DHT22;51601;51.356;12.458;2023-04-01T04:01:16;9.30;99.90
65034;DHT22;51601;51.356;12.458;2023-04-01T04:05:35;9.30;99.90
65034;DHT22;51601;51.356;12.458;2023-04-01T04:09:53;9.30;99.90
65034;DHT22;51601;51.356;12.458;2023-04-01T04:14:14;9.30;99.90
65034;DHT22;51601;51.356;12.458;2023-04-01T04:18:36;9.20;99.90
65034;DHT22;51601;51.356;12.458;2023-04-01T04:22:54;9.20;99.90
65034;DHT22;51601;51.356;12.458;2023-04-01T04:27:12;9.10;99.90
65034;DHT22;51601;51.356;12.458;2023-04-01T04:31:56;9.00;99.90
65034;DHT22;51601;51.356;12.458;2023-04-01T04:36:15;9.00;99.90
65034;DHT22;51601;51.356;12.458;2023-04-01T04:40:35;9.00;99.90
65034;DHT22;51601;51.356;12.458;2023-04-01T04:44:55;8.90;99.90
65034;DHT22;51601;51.356;12.458;2023-04-01T04:49:14;8.90;99.90
65034;DHT22;51601;51.356;12.458;2023-04-01T04:53:34;8.90;99.90
65034;DHT22;51601;51.356;12.458;2023-04-01T04:57:52;8.90;99.90
65034;DHT22;51601;51.356;12.458;2023-04-01T05:02:10;8.90;99.90
65034;DHT22;51601;51.356;12.458;2023-04-01T05:06:29;8.90;99.90
65034;DHT22;51601;51.356;12.458;2023-04-01T05:10:49;9.00;99.90
65034;DHT22;51601;51.356;12.458;2023-04-01T05:15:08;9.00;99.90
65034;DHT22;51601;51.356;12.458;2023-04-01T05:19:28;9.00;99.90
65034;DHT22;51601;51.356;12.458;2023-04-01T05:23:48;9.00;99.90
65034;DHT22;51601;51.356;12.458;2023-04-01T05:28:08;9.00;99.90
65034;DHT22;51601;51.356;12.458;2023-04-01T05:32:26;9.00;99.90
65034;DHT22;51601;51.356;12.458;2023-04-01T05:36:45;9.10;99.90
65034;DHT22;51601;51.356;12.458;2023-04-01T05:41:06;9.10;99.90
65034;DHT22;51601;51.356;12.458;2023-04-01T05:45:29;9.20;99.90
65034;DHT22;51601;51.356;12.458;2023-04-01T05:50:15;9.20;99.90
65034;DHT22;51601;51.356;12.458;2023-04-01T05:54:33;9.30;99.90
65034;DHT22;51601;51.356;12.458;2023-04-01T05:58:53;9.40;99.90
65034;DHT22;51601;51.356;12.458;2023-04-01T06:03:15;9.50;99.90
65034;DHT22;51601;51.356;12.458;2023-04-01T06:07:33;9.50;99.90
65034;DHT22;51601;51.356;12.458;2023-04-01T06:17:01;9.60;99.90
65034;DHT22;51601;51.356;12.458;2023-04-01T06:21:42;9.60;99.90
65034;DHT22;51601;51.356;12.458;2023-04-01T06:26:22;9.70;99.90
65034;DHT22;51601;51.356;12.458;2023-04-01T06:30:43;9.70;99.90
65034;DHT22;51601;51.356;12.458;2023-04-01T06:35:32;9.80;99.90
65034;DHT22;51601;51.356;12.458;2023-04-01T06:40:18;9.80;99.90
65034;DHT22;51601;51.356;12.458;2023-04-01T06:44:52;9.90;99.90
65034;DHT22;51601;51.356;12.458;2023-04-01T06:49:40;10.00;99.90
65034;DHT22;51601;51.356;12.458;2023-04-01T06:54:28;10.10;99.90
65034;DHT22;51601;51.356;12.458;2023-04-01T06:59:18;10.30;99.90
65034;DHT22;51601;51.356;12.458;2023-04-01T07:03:43;10.30;99.90
65034;DHT22;51601;51.356;12.458;2023-04-01T07:08:11;10.50;99.90
65034;DHT22;51601;51.356;12.458;2023-04-01T07:12:40;10.60;99.90
65034;DHT22;51601;51.356;12.458;2023-04-01T07:17:23;10.70;99.90
65034;DHT22;51601;51.356;12.458;2023-04-01T07:21:47;10.80;99.90
65034;DHT22;51601;51.356;12.458;2023-04-01T07:26:18;11.00;99.90
65034;DHT22;51601;51.356;12.458;2023-04-01T07:31:07;11.10;99.90
65034;DHT22;51601;51.356;12.458;2023-04-01T07:35:31;11.20;99.90
65034;DHT22;51601;51.356;12.458;2023-04-01T07:39:59;11.30;99.90
65034;DHT22;51601;51.356;12.458;2023-04-01T07:44:32;11.40;99.90
65034;DHT22;51601;51.356;12.458;2023-04-01T07:48:57;11.50;99.90
65034;DHT22;51601;51.356;12.458;2023-04-01T07:53:23;11.70;99.90
65034;DHT22;51601;51.356;12.458;2023-04-01T07:57:53;11.80;99.90
65034;DHT22;51601;51.356;12.458;2023-04-01T08:02:25;11.80;99.90
65034;DHT22;51601;51.356;12.458;2023-04-01T08:06:54;11.90;99.90
65034;DHT22;51601;51.356;12.458;2023-04-01T08:11:28;12.00;99.90
65034;DHT22;51601;51.356;12.458;2023-04-01T08:16:13;12.20;99.90
65034;DHT22;51601;51.356;12.458;2023-04-01T08:20:45;12.40;99.90
65034;DHT22;51601;51.356;12.458;2023-04-01T08:25:11;12.60;99.90
65034;DHT22;51601;51.356;12.458;2023-04-01T08:29:38;12.70;99.90
65034;DHT22;51601;51.356;12.458;2023-04-01T08:34:00;12.70;99.90
65034;DHT22;51601;51.356;12.458;2023-04-01T08:38:27;12.70;99.90
65034;DHT22;51601;51.356;12.458;2023-04-01T08:43:00;12.60;99.90
65034;DHT22;51601;51.356;12.458;2023-04-01T08:47:50;12.50;99.90
65034;DHT22;51601;51.356;12.458;2023-04-01T08:52:21;12.50;99.90
65034;DHT22;51601;51.356;12.458;2023-04-01T08:56:53;12.50;99.90
65034;DHT22;51601;51.356;12.458;2023-04-01T09:01:26;12.60;99.90
65034;DHT22;51601;51.356;12.458;2023-04-01T09:06:24;12.70;99.90
65034;DHT22;51601;51.356;12.458;2023-04-01T09:11:02;12.80;99.90
65034;DHT22;51601;51.356;12.458;2023-04-01T09:16:19;12.80;99.90
65034;DHT22;51601;51.356;12.458;2023-04-01T09:20:52;13.00;99.90
65034;DHT22;51601;51.356;12.458;2023-04-01T09:25:38;13.10;99.90
65034;DHT22;51601;51.356;12.458;2023-04-01T09:30:36;13.30;99.90
65034;DHT22;51601;51.356;12.458;2023-04-01T09:34:57;13.40;99.90
65034;DHT22;51601;51.356;12.458;2023-04-01T09:39:36;13.50;99.90
65034;DHT22;51601;51.356;12.458;2023-04-01T09:44:02;13.60;99.90
65034;DHT22;51601;51.356;12.458;2023-04-01T09:48:49;13.70;99.90
65034;DHT22;51601;51.356;12.458;2023-04-01T09:53:20;13.70;99.90
65034;DHT22;51601;51.356;12.458;2023-04-01T09:58:09;13.80;99.40
65034;DHT22;51601;51.356;12.458;2023-04-01T10:23:20;14.00;99.90
65034;DHT22;51601;51.356;12.458;2023-04-01T10:27:55;14.00;99.90
65034;DHT22;51601;51.356;12.458;2023-04-01T10:33:20;13.80;97.30
65034;DHT22;51601;51.356;12.458;2023-04-01T10:38:15;13.50;98.00
65034;DHT22;51601;51.356;12.458;2023-04-01T10:43:23;13.30;98.70
65034;DHT22;51601;51.356;12.458;2023-04-01T10:57:42;13.20;99.90
65034;DHT22;51601;51.356;12.458;2023-04-01T11:13:27;13.50;99.90
65034;DHT22;51601;51.356;12.458;2023-04-01T11:23:23;13.50;99.90
65034;DHT22;51601;51.356;12.458;2023-04-01T11:28:01;13.50;99.90
65034;DHT22;51601;51.356;12.458;2023-04-01T11:33:02;13.60;99.90
65034;DHT22;51601;51.356;12.458;2023-04-01T11:38:07;13.70;99.90
65034;DHT22;51601;51.356;12.458;2023-04-01T11:43:18;13.60;99.90
65034;DHT22;51601;51.356;12.458;2023-04-01T11:49:00;13.60;99.90
65034;DHT22;51601;51.356;12.458;2023-04-01T11:54:06;13.50;99.90
65034;DHT22;51601;51.356;12.458;2023-04-01T11:59:37;13.40;99.90
65034;DHT22;51601;51.356;12.458;2023-04-01T12:04:48;13.50;99.90
65034;DHT22;51601;51.356;12.458;2023-04-01T12:09:53;13.50;99.90
65034;DHT22;51601;51.356;12.458;2023-04-01T12:15:04;13.60;99.90
65034;DHT22;51601;51.356;12.458;2023-04-01T12:20:21;13.50;99.90
65034;DHT22;51601;51.356;12.458;2023-04-01T12:25:33;13.40;99.90
65034;DHT22;51601;51.356;12.458;2023-04-01T12:35:58;13.20;99.90
65034;DHT22;51601;51.356;12.458;2023-04-01T21:11:58;7.80;99.90
65034;DHT22;51601;51.356;12.458;2023-04-01T21:17:04;8.00;99.90
65034;DHT22;51601;51.356;12.458;2023-04-01T21:27:06;7.90;99.90
65034;DHT22;51601;51.356;12.458;2023-04-01T21:31:37;7.70;99.90
65034;DHT22;51601;51.356;12.458;2023-04-01T21:36:07;7.50;99.90
65034;DHT22;51601;51.356;12.458;2023-04-01T21:40:58;7.40;99.90
65034;DHT22;51601;51.356;12.458;2023-04-01T21:45:35;7.40;99.90
65034;DHT22;51601;51.356;12.458;2023-04-01T21:50:35;7.20;99.90
65034;DHT22;51601;51.356;12.458;2023-04-01T22:06:27;7.00;99.90
65034;DHT22;51601;51.356;12.458;2023-04-01T22:10:53;6.90;99.90
65034;DHT22;51601;51.356;12.458;2023-04-01T22:15:20;6.80;99.90
65034;DHT22;51601;51.356;12.458;2023-04-01T22:19:48;6.80;99.90
65034;DHT22;51601;51.356;12.458;2023-04-01T22:24:17;6.70;99.90
65034;DHT22;51601;51.356;12.458;2023-04-01T22:28:41;6.60;99.90
65034;DHT22;51601;51.356;12.458;2023-04-01T22:33:05;6.50;99.90
65034;DHT22;51601;51.356;12.458;2023-04-01T22:37:30;6.40;99.90
65034;DHT22;51601;51.356;12.458;2023-04-01T22:42:01;6.30;99.90
65034;DHT22;51601;51.356;12.458;2023-04-01T22:46:34;6.20;99.90
65034;DHT22;51601;51.356;12.458;2023-04-01T22:51:03;6.00;99.90
65034;DHT22;51601;51.356;12.458;2023-04-01T22:55:27;6.00;99.90
65034;DHT22;51601;51.356;12.458;2023-04-01T22:59:51;5.90;99.90
65034;DHT22;51601;51.356;12.458;2023-04-01T23:04:15;5.80;99.90
65034;DHT22;51601;51.356;12.458;2023-04-01T23:08:59;5.80;99.90
65034;DHT22;51601;51.356;12.458;2023-04-01T23:13:22;5.70;99.90
65034;DHT22;51601;51.356;12.458;2023-04-01T23:18:00;5.60;99.90
65034;DHT22;51601;51.356;12.458;2023-04-01T23:22:28;5.50;99.90
65034;DHT22;51601;51.356;12.458;2023-04-01T23:26:52;5.50;99.90
65034;DHT22;51601;51.356;12.458;2023-04-01T23:31:37;5.40;99.90
65034;DHT22;51601;51.356;12.458;2023-04-01T23:36:00;5.40;99.90
65034;DHT22;51601;51.356;12.458;2023-04-01T23:40:24;5.40;99.90
65034;DHT22;51601;51.356;12.458;2023-04-01T23:44:43;5.30;99.90
65034;DHT22;51601;51.356;12.458;2023-04-01T23:49:01;5.30;99.90
65034;DHT22;51601;51.356;12.458;2023-04-01T23:53:25;5.30;99.90
65034;DHT22;51601;51.356;12.458;2023-04-01T23:58:02;5.20;99.90
